createdAt,value
2018-07-20T00:00:42.220Z,10.27
2018-07-20T00:03:10.538Z,7.77
2018-07-20T00:05:38.612Z,11.73
2018-07-20T00:08:06.719Z,7.83
2018-07-20T00:10:34.782Z,7.87
2018-07-20T00:13:02.879Z,8.30
2018-07-20T00:15:30.740Z,8.90
2018-07-20T00:17:58.834Z,10.63
2018-07-20T00:20:26.913Z,9.13
2018-07-20T00:22:54.986Z,10.20
2018-07-20T00:25:23.406Z,8.83
2018-07-20T00:27:51.534Z,8.83
2018-07-20T00:30:19.498Z,9.73
2018-07-20T00:32:47.534Z,7.93
2018-07-20T00:35:15.618Z,8.67
2018-07-20T00:37:43.895Z,8.77
2018-07-20T00:40:12.244Z,8.37
2018-07-20T00:42:40.331Z,13.43
2018-07-20T00:45:08.415Z,7.93
2018-07-20T00:47:36.514Z,11.33
2018-07-20T00:50:04.994Z,8.20
2018-07-20T00:52:33.070Z,9.68
2018-07-20T00:55:01.526Z,9.63
2018-07-20T00:57:29.609Z,9.23
2018-07-20T00:59:57.706Z,11.90
2018-07-20T01:02:25.782Z,9.50
2018-07-20T01:04:53.855Z,9.93
2018-07-20T01:07:22.084Z,9.70
2018-07-20T01:09:50.433Z,9.07
2018-07-20T01:12:18.518Z,8.70
2018-07-20T01:14:46.624Z,8.57
2018-07-20T01:17:14.686Z,9.13
2018-07-20T01:19:42.811Z,8.43
2018-07-20T01:22:10.898Z,8.40
2018-07-20T01:24:39.282Z,8.77
2018-07-20T01:27:07.360Z,7.70
2018-07-20T01:29:35.422Z,9.07
2018-07-20T01:32:03.802Z,9.00
2018-07-20T01:34:31.863Z,8.50
2018-07-20T01:36:59.950Z,11.33
2018-07-20T01:39:28.037Z,9.37
2018-07-20T01:41:56.177Z,10.38
2018-07-20T01:44:24.353Z,10.77
2018-07-20T01:46:52.734Z,10.80
2018-07-20T01:49:20.810Z,11.00
2018-07-20T01:51:48.890Z,11.13
2018-07-20T01:54:16.988Z,12.10
2018-07-20T01:56:45.078Z,13.03
2018-07-20T01:59:13.144Z,12.27
2018-07-20T02:01:41.478Z,17.60
2018-07-20T02:04:09.641Z,11.87
2018-07-20T02:06:37.758Z,12.93
2018-07-20T02:09:08.234Z,15.10
2018-07-20T02:11:36.414Z,14.97
2018-07-20T02:14:04.505Z,17.70
2018-07-20T02:16:32.578Z,12.17
2018-07-20T02:19:00.637Z,19.50
2018-07-20T02:21:29.057Z,14.23
2018-07-20T02:23:57.406Z,16.12
2018-07-20T02:26:25.494Z,16.97
2018-07-20T02:28:53.582Z,18.80
2018-07-20T02:31:21.696Z,17.00
2018-07-20T02:33:49.754Z,15.93
2018-07-20T02:36:17.919Z,22.63
2018-07-20T02:38:45.998Z,16.43
2018-07-20T02:41:14.068Z,13.73
2018-07-20T02:43:42.158Z,15.30
2018-07-20T02:46:10.243Z,15.60
2018-07-20T02:48:38.331Z,15.43
2018-07-20T02:51:06.526Z,15.23
2018-07-20T02:53:34.878Z,14.73
2018-07-20T02:56:02.975Z,14.63
2018-07-20T02:58:30.934Z,14.17
2018-07-20T03:00:59.022Z,14.80
2018-07-20T03:03:27.104Z,15.40
2018-07-20T03:05:55.201Z,14.40
2018-07-20T03:08:23.110Z,14.53
2018-07-20T03:10:51.180Z,14.43
2018-07-20T03:13:19.271Z,18.90
2018-07-20T03:15:47.409Z,17.37
2018-07-20T03:18:15.510Z,15.43
2018-07-20T03:20:43.622Z,14.33
2018-07-20T03:23:11.742Z,13.70
2018-07-20T03:25:39.899Z,13.27
2018-07-20T03:28:07.975Z,15.93
2018-07-20T03:30:36.145Z,13.10
2018-07-20T03:33:04.234Z,17.10
2018-07-20T03:35:32.338Z,13.57
2018-07-20T03:38:00.696Z,13.33
2018-07-20T03:40:28.872Z,12.77
2018-07-20T03:42:57.002Z,14.17
2018-07-20T03:45:25.098Z,15.77
2018-07-20T03:47:53.170Z,13.00
2018-07-20T03:50:21.335Z,11.60
2018-07-20T03:52:49.429Z,14.70
2018-07-20T03:55:17.606Z,14.13
2018-07-20T03:57:45.695Z,13.23
2018-07-20T04:00:14.053Z,13.30
2018-07-20T04:02:42.115Z,13.43
2018-07-20T04:05:10.222Z,13.37
2018-07-20T04:07:38.339Z,14.43
2018-07-20T04:10:06.567Z,16.53
2018-07-20T04:12:34.642Z,15.20
2018-07-20T04:15:03.086Z,16.53
2018-07-20T04:17:35.434Z,14.47
2018-07-20T04:20:04.139Z,14.93
2018-07-20T04:22:32.198Z,13.13
2018-07-20T04:25:00.277Z,13.50
2018-07-20T04:27:28.670Z,14.50
2018-07-20T04:29:56.811Z,14.67
2018-07-20T04:32:24.886Z,15.50
2018-07-20T04:34:53.293Z,18.43
2018-07-20T04:37:21.385Z,20.63
2018-07-20T04:39:49.486Z,15.97
2018-07-20T04:42:17.936Z,18.87
2018-07-20T04:44:46.102Z,17.00
2018-07-20T04:47:14.179Z,16.43
2018-07-20T04:49:42.286Z,21.87
2018-07-20T04:52:10.364Z,20.23
2018-07-20T04:54:38.443Z,22.07
2018-07-20T04:57:06.802Z,20.00
2018-07-20T04:59:34.930Z,18.63
2018-07-20T05:02:03.002Z,18.13
2018-07-20T05:04:31.088Z,20.27
2018-07-20T05:06:59.223Z,20.27
2018-07-20T05:09:27.421Z,18.03
2018-07-20T05:11:55.782Z,16.37
2018-07-20T05:14:23.854Z,17.37
2018-07-20T05:16:51.942Z,15.47
2018-07-20T05:19:20.050Z,18.10
2018-07-20T05:21:48.119Z,17.27
2018-07-20T05:24:16.274Z,16.10
2018-07-20T05:26:44.609Z,16.50
2018-07-20T05:29:12.714Z,16.97
2018-07-20T05:31:40.803Z,17.83
2018-07-20T05:34:08.891Z,21.10
2018-07-20T05:36:36.765Z,20.33
2018-07-20T05:39:06.991Z,16.43
2018-07-20T05:41:35.328Z,18.07
2018-07-20T05:44:03.436Z,17.50
2018-07-20T05:46:31.481Z,17.83
2018-07-20T05:48:59.944Z,20.88
2018-07-20T05:51:28.052Z,18.60
2018-07-20T05:53:56.207Z,17.60
2018-07-20T05:56:24.562Z,21.13
2018-07-20T05:58:52.639Z,15.20
2018-07-20T06:01:20.830Z,15.23
2018-07-20T06:03:49.204Z,14.90
2018-07-20T06:06:17.325Z,14.67
2018-07-20T06:08:45.453Z,14.20
2018-07-20T06:11:13.824Z,20.73
2018-07-20T06:13:42.011Z,15.23
2018-07-20T06:16:10.095Z,17.57
2018-07-20T06:18:38.444Z,18.97
2018-07-20T06:21:06.942Z,14.37
2018-07-20T06:23:35.107Z,16.33
2018-07-20T06:26:03.130Z,15.47
2018-07-20T06:28:31.265Z,15.13
2018-07-20T06:30:59.336Z,15.90
2018-07-20T06:33:27.681Z,15.20
2018-07-20T06:35:55.790Z,14.77
2018-07-20T06:38:23.886Z,14.00
2018-07-20T06:40:52.435Z,14.53
2018-07-20T06:43:20.675Z,13.87
2018-07-20T06:45:48.810Z,16.55
2018-07-20T06:48:16.946Z,14.20
2018-07-20T06:50:45.035Z,18.67
2018-07-20T06:53:13.154Z,14.40
2018-07-20T06:55:41.402Z,12.43
2018-07-20T06:58:09.551Z,13.43
2018-07-20T07:00:37.638Z,13.10
2018-07-20T07:03:06.211Z,12.33
2018-07-20T07:05:34.303Z,12.33
2018-07-20T07:08:02.427Z,18.70
2018-07-20T07:10:30.522Z,11.90
2018-07-20T07:12:58.664Z,12.03
2018-07-20T07:15:26.749Z,13.43
2018-07-20T07:17:55.135Z,15.43
2018-07-20T07:20:23.217Z,13.13
2018-07-20T07:22:51.290Z,12.60
2018-07-20T07:25:19.468Z,14.90
2018-07-20T07:27:47.632Z,12.25
2018-07-20T07:30:15.826Z,20.30
2018-07-20T07:32:44.203Z,11.73
2018-07-20T07:35:12.290Z,12.90
2018-07-20T07:37:40.438Z,14.07
2018-07-20T07:40:08.988Z,13.08
2018-07-20T07:42:37.196Z,11.50
2018-07-20T07:45:05.982Z,10.88
2018-07-20T07:47:34.399Z,11.18
2018-07-20T07:50:03.174Z,17.50
2018-07-20T07:52:31.346Z,12.98
2018-07-20T07:54:59.694Z,10.50
2018-07-20T07:57:28.430Z,9.88
2018-07-20T07:59:56.576Z,10.72
2018-07-20T08:02:26.004Z,10.75
2018-07-20T08:04:54.247Z,10.15
2018-07-20T08:07:22.322Z,12.50
2018-07-20T08:09:50.847Z,11.08
2018-07-20T08:12:19.016Z,12.18
2018-07-20T08:14:47.895Z,11.73
2018-07-20T08:17:16.217Z,12.07
2018-07-20T08:19:44.835Z,11.12
2018-07-20T08:22:12.918Z,9.90
2018-07-20T08:24:42.130Z,13.30
2018-07-20T08:27:10.256Z,10.25
2018-07-20T08:29:38.737Z,10.88
2018-07-20T08:32:07.150Z,11.95
2018-07-20T08:34:35.422Z,11.88
2018-07-20T08:37:08.751Z,15.00
2018-07-20T08:39:40.356Z,13.28
2018-07-20T08:42:10.370Z,11.03
2018-07-20T08:44:38.570Z,12.25
2018-07-20T08:47:07.645Z,12.70
2018-07-20T08:49:35.950Z,10.98
2018-07-20T08:52:05.330Z,12.15
2018-07-20T08:54:33.512Z,12.33
2018-07-20T08:57:03.419Z,11.78
2018-07-20T08:59:31.628Z,12.35
2018-07-20T09:02:00.608Z,11.75
2018-07-20T09:04:28.977Z,13.13
2018-07-20T09:06:57.864Z,10.98
2018-07-20T09:09:25.938Z,13.93
2018-07-20T09:11:54.015Z,12.85
2018-07-20T09:14:22.539Z,10.80
2018-07-20T09:16:50.618Z,11.05
2018-07-20T09:19:19.021Z,10.75
2018-07-20T09:21:47.122Z,17.02
2018-07-20T09:24:15.619Z,14.70
2018-07-20T09:26:44.090Z,14.23
2018-07-20T09:29:12.483Z,14.58
2018-07-20T09:31:40.583Z,12.15
2018-07-20T09:34:09.078Z,9.93
2018-07-20T09:36:37.090Z,11.10
2018-07-20T09:39:07.703Z,12.33
2018-07-20T09:41:35.818Z,11.20
2018-07-20T09:44:04.207Z,13.22
2018-07-20T09:46:32.370Z,9.93
2018-07-20T09:49:00.759Z,12.28
2018-07-20T09:51:28.830Z,13.78
2018-07-20T09:53:56.902Z,14.50
2018-07-20T09:56:25.334Z,9.48
2018-07-20T09:58:53.415Z,10.55
2018-07-20T10:01:21.501Z,10.88
2018-07-20T10:03:49.967Z,10.45
2018-07-20T10:06:18.061Z,9.15
2018-07-20T10:08:46.294Z,9.33
2018-07-20T10:11:14.418Z,8.00
2018-07-20T10:13:42.494Z,10.78
2018-07-20T10:16:10.564Z,12.37
2018-07-20T10:18:38.931Z,9.48
2018-07-20T10:21:07.018Z,8.90
2018-07-20T10:23:35.091Z,12.40
2018-07-20T10:26:03.166Z,9.13
2018-07-20T10:28:31.234Z,11.38
2018-07-20T10:30:59.352Z,10.43
2018-07-20T10:33:27.771Z,12.30
2018-07-20T10:35:55.878Z,12.63
2018-07-20T10:38:23.981Z,8.58
2018-07-20T10:40:52.493Z,8.83
2018-07-20T10:43:20.729Z,9.35
2018-07-20T10:45:48.818Z,9.03
2018-07-20T10:48:17.446Z,6.75
2018-07-20T10:50:45.592Z,6.95
2018-07-20T10:53:13.650Z,8.80
2018-07-20T10:55:41.784Z,8.50
2018-07-20T10:58:09.915Z,8.15
2018-07-20T11:00:38.015Z,8.08
2018-07-20T11:03:06.142Z,6.65
2018-07-20T11:05:34.324Z,7.90
2018-07-20T11:08:02.406Z,11.05
2018-07-20T11:10:30.792Z,6.65
2018-07-20T11:12:58.867Z,6.12
2018-07-20T11:15:26.994Z,7.70
2018-07-20T11:17:55.418Z,8.70
2018-07-20T11:20:23.678Z,8.40
2018-07-20T11:22:51.714Z,5.62
2018-07-20T11:25:20.057Z,7.67
2018-07-20T11:27:48.290Z,5.80
2018-07-20T11:30:16.480Z,9.20
2018-07-20T11:32:45.555Z,6.92
2018-07-20T11:35:13.617Z,5.85
2018-07-20T11:37:41.550Z,10.43
2018-07-20T11:40:09.906Z,8.98
2018-07-20T11:42:37.972Z,6.20
2018-07-20T11:45:06.474Z,8.68
2018-07-20T11:47:34.950Z,5.85
2018-07-20T11:50:03.038Z,6.78
2018-07-20T11:52:31.160Z,7.50
2018-07-20T11:54:59.262Z,7.92
2018-07-20T11:57:27.371Z,8.70
2018-07-20T11:59:55.463Z,11.30
2018-07-20T12:02:23.982Z,7.62
2018-07-20T12:04:52.086Z,8.13
2018-07-20T12:07:20.159Z,7.03
2018-07-20T12:09:48.547Z,6.70
2018-07-20T12:12:16.646Z,8.35
2018-07-20T12:14:44.747Z,7.97
2018-07-20T12:17:13.226Z,6.72
2018-07-20T12:19:41.303Z,9.43
2018-07-20T12:22:09.710Z,4.95
2018-07-20T12:24:38.168Z,5.97
2018-07-20T12:27:06.602Z,8.80
2018-07-20T12:29:34.818Z,5.58
2018-07-20T12:32:03.698Z,6.60
2018-07-20T12:34:31.842Z,7.17
2018-07-20T12:36:59.943Z,7.00
2018-07-20T12:39:28.324Z,5.97
2018-07-20T12:41:56.416Z,6.92
2018-07-20T12:44:27.886Z,7.53
2018-07-20T12:46:55.978Z,7.70
2018-07-20T12:49:24.074Z,6.65
2018-07-20T12:51:52.502Z,7.47
2018-07-20T12:54:20.578Z,7.53
2018-07-20T12:56:48.665Z,6.17
2018-07-20T12:59:17.047Z,16.73
2018-07-20T13:01:45.167Z,7.45
2018-07-20T13:04:13.277Z,5.85
2018-07-20T13:06:41.326Z,8.30
2018-07-20T13:09:11.223Z,5.22
2018-07-20T13:11:39.358Z,7.58
2018-07-20T13:14:07.858Z,8.80
2018-07-20T13:16:35.735Z,7.92
2018-07-20T13:19:03.851Z,7.03
2018-07-20T13:21:32.335Z,5.12
2018-07-20T13:24:00.420Z,5.40
2018-07-20T13:26:28.490Z,6.65
2018-07-20T13:28:56.870Z,9.28
2018-07-20T13:31:24.946Z,6.33
2018-07-20T13:33:53.018Z,6.30
2018-07-20T13:36:21.382Z,6.33
2018-07-20T13:38:49.676Z,6.75
2018-07-20T13:41:17.826Z,8.65
2018-07-20T13:43:46.218Z,6.50
2018-07-20T13:46:14.346Z,9.13
2018-07-20T13:48:42.434Z,6.78
2018-07-20T13:51:10.826Z,6.70
2018-07-20T13:53:38.906Z,7.40
2018-07-20T13:56:06.985Z,7.28
2018-07-20T13:58:35.342Z,7.33
2018-07-20T14:01:04.102Z,7.17
2018-07-20T14:03:32.196Z,7.85
2018-07-20T14:06:00.686Z,6.03
2018-07-20T14:08:28.776Z,6.62
2018-07-20T14:10:57.761Z,5.22
2018-07-20T14:13:26.219Z,7.47
2018-07-20T14:15:54.357Z,4.15
2018-07-20T14:18:22.528Z,5.22
2018-07-20T14:20:51.087Z,6.78
2018-07-20T14:23:19.325Z,7.45
2018-07-20T14:25:47.387Z,6.37
2018-07-20T14:28:15.993Z,8.48
2018-07-20T14:30:44.070Z,4.78
2018-07-20T14:33:12.174Z,5.45
2018-07-20T14:35:40.341Z,5.70
2018-07-20T14:38:08.618Z,3.60
2018-07-20T14:40:36.880Z,4.97
2018-07-20T14:43:05.275Z,4.72
2018-07-20T14:45:33.313Z,5.62
2018-07-20T14:48:03.643Z,4.20
2018-07-20T14:50:32.036Z,5.05
2018-07-20T14:53:00.131Z,3.87
2018-07-20T14:55:27.995Z,8.68
2018-07-20T14:57:56.073Z,3.45
2018-07-20T15:00:24.171Z,4.87
2018-07-20T15:02:52.261Z,3.70
2018-07-20T15:05:20.343Z,3.95
2018-07-20T15:07:48.618Z,5.05
2018-07-20T15:10:16.944Z,5.33
2018-07-20T15:12:45.417Z,6.80
2018-07-20T15:15:13.658Z,4.05
2018-07-20T15:17:41.726Z,5.67
2018-07-20T15:20:10.239Z,4.20
2018-07-20T15:22:38.355Z,4.78
2018-07-20T15:25:06.683Z,3.55
2018-07-20T15:27:35.038Z,5.33
2018-07-20T15:30:03.167Z,5.37
2018-07-20T15:32:31.258Z,5.08
2018-07-20T15:34:59.326Z,4.05
2018-07-20T15:37:27.391Z,4.58
2018-07-20T15:39:55.558Z,3.65
2018-07-20T15:42:23.902Z,4.90
2018-07-20T15:44:51.975Z,4.22
2018-07-20T15:47:20.379Z,4.70
2018-07-20T15:49:48.601Z,3.47
2018-07-20T15:54:44.974Z,5.40
2018-07-20T15:57:13.462Z,3.98
2018-07-20T15:59:41.586Z,6.22
2018-07-20T16:02:09.702Z,3.90
2018-07-20T16:04:38.224Z,8.10
2018-07-20T16:07:06.366Z,6.27
2018-07-20T16:09:34.455Z,4.58
2018-07-20T16:12:02.814Z,6.20
2018-07-20T16:14:30.886Z,5.25
2018-07-20T16:17:00.435Z,3.25
2018-07-20T16:19:28.770Z,7.25
2018-07-20T16:21:56.844Z,7.47
2018-07-20T16:24:24.955Z,4.37
2018-07-20T16:26:53.108Z,7.85
2018-07-20T16:29:21.190Z,8.58
2018-07-20T16:31:49.281Z,13.28
2018-07-20T16:34:17.490Z,5.85
2018-07-20T16:36:45.713Z,4.83
2018-07-20T16:39:13.743Z,6.35
2018-07-20T16:41:41.882Z,5.97
2018-07-20T16:44:10.126Z,5.22
2018-07-20T16:46:38.263Z,5.70
2018-07-20T16:49:06.413Z,3.77
2018-07-20T16:51:34.523Z,4.92
2018-07-20T16:54:02.626Z,4.58
2018-07-20T16:56:30.747Z,5.60
2018-07-20T16:58:58.826Z,4.28
2018-07-20T17:01:26.926Z,8.23
2018-07-20T17:03:55.270Z,5.80
2018-07-20T17:06:23.477Z,5.55
2018-07-20T17:08:51.619Z,4.65
2018-07-20T17:11:20.017Z,7.20
2018-07-20T17:13:48.323Z,7.05
2018-07-20T17:16:16.506Z,8.88
2018-07-20T17:18:44.842Z,3.95
2018-07-20T17:21:13.157Z,4.42
2018-07-20T17:23:41.253Z,4.28
2018-07-20T17:26:09.675Z,5.30
2018-07-20T17:28:37.752Z,8.43
2018-07-20T17:31:06.080Z,6.67
2018-07-20T17:33:34.548Z,5.00
2018-07-20T17:36:02.667Z,6.83
2018-07-20T17:38:30.732Z,4.08
2018-07-20T17:40:59.146Z,5.28
2018-07-20T17:43:27.202Z,6.72
2018-07-20T17:45:55.311Z,5.08
2018-07-20T17:48:23.383Z,5.12
2018-07-20T17:50:51.321Z,4.65
2018-07-20T17:53:19.439Z,4.80
2018-07-20T17:55:47.696Z,8.85
2018-07-20T17:58:15.794Z,6.28
2018-07-20T18:00:43.870Z,7.85
2018-07-20T18:03:12.222Z,4.47
2018-07-20T18:05:40.074Z,3.67
2018-07-20T18:08:08.110Z,5.40
2018-07-20T18:10:36.700Z,3.60
2018-07-20T18:13:04.977Z,7.20
2018-07-20T18:15:33.054Z,7.47
2018-07-20T18:18:01.532Z,7.35
2018-07-20T18:20:29.722Z,5.78
2018-07-20T18:22:58.094Z,4.30
2018-07-20T18:25:26.254Z,6.30
2018-07-20T18:27:54.402Z,4.90
2018-07-20T18:30:22.636Z,5.20
2018-07-20T18:32:50.990Z,6.03
2018-07-20T18:35:19.119Z,4.47
2018-07-20T18:37:47.255Z,7.53
2018-07-20T18:40:15.604Z,5.05
2018-07-20T18:42:43.771Z,6.72
2018-07-20T18:45:11.874Z,4.83
2018-07-20T18:47:40.403Z,4.00
2018-07-20T18:50:09.274Z,3.17
2018-07-20T18:52:37.278Z,4.95
2018-07-20T18:55:05.883Z,4.83
2018-07-20T18:57:33.983Z,5.05
2018-07-20T19:00:02.144Z,2.40
2018-07-20T19:02:30.509Z,4.72
2018-07-20T19:04:58.580Z,3.25
2018-07-20T19:07:26.660Z,5.20
2018-07-20T19:09:55.043Z,6.20
2018-07-20T19:12:23.138Z,4.00
2018-07-20T19:14:51.211Z,4.10
2018-07-20T19:17:19.659Z,4.97
2018-07-20T19:19:47.735Z,4.15
2018-07-20T19:22:15.820Z,3.90
2018-07-20T19:24:44.169Z,6.15
2018-07-20T19:27:12.258Z,4.60
2018-07-20T19:29:40.335Z,4.10
2018-07-20T19:32:09.006Z,5.25
2018-07-20T19:34:37.081Z,10.50
2018-07-20T19:37:05.154Z,6.33
2018-07-20T19:39:33.533Z,4.58
2018-07-20T19:42:01.624Z,3.50
2018-07-20T19:44:29.710Z,3.27
2018-07-20T19:46:57.815Z,2.25
2018-07-20T19:49:25.955Z,3.70
2018-07-20T19:51:54.081Z,5.60
2018-07-20T19:54:22.406Z,3.62
2018-07-20T19:56:51.116Z,3.87
2018-07-20T19:59:19.190Z,4.85
2018-07-20T20:01:47.534Z,3.20
2018-07-20T20:04:15.653Z,6.15
2018-07-20T20:06:43.751Z,7.65
2018-07-20T20:09:12.343Z,2.87
2018-07-20T20:11:40.437Z,3.98
2018-07-20T20:14:08.507Z,6.20
2018-07-20T20:16:37.187Z,5.45
2018-07-20T20:19:05.366Z,4.30
2018-07-20T20:21:33.430Z,5.37
2018-07-20T20:24:01.806Z,3.30
2018-07-20T20:26:29.887Z,4.05
2018-07-20T20:28:57.966Z,2.30
2018-07-20T20:31:26.514Z,3.95
2018-07-20T20:33:54.659Z,4.15
2018-07-20T20:36:22.798Z,3.27
2018-07-20T20:38:51.152Z,4.70
2018-07-20T20:41:19.320Z,2.65
2018-07-20T20:43:47.430Z,6.62
2018-07-20T20:46:15.780Z,4.22
2018-07-20T20:48:44.102Z,3.37
2018-07-20T20:51:12.202Z,7.45
2018-07-20T20:53:40.342Z,2.27
2018-07-20T20:56:08.418Z,4.42
2018-07-20T20:58:36.567Z,6.20
2018-07-20T21:01:04.915Z,3.83
2018-07-20T21:03:32.999Z,4.17
2018-07-20T21:06:01.091Z,2.50
2018-07-20T21:08:29.434Z,2.00
2018-07-20T21:10:57.525Z,2.70
2018-07-20T21:13:25.578Z,3.87
2018-07-20T21:15:54.023Z,7.03
2018-07-20T21:18:22.111Z,5.67
2018-07-20T21:20:50.225Z,4.15
2018-07-20T21:23:18.642Z,2.10
2018-07-20T21:25:46.702Z,2.98
2018-07-20T21:28:14.784Z,3.27
2018-07-20T21:30:42.890Z,2.58
2018-07-20T21:33:10.954Z,5.83
2018-07-20T21:35:39.018Z,3.75
2018-07-20T21:38:07.388Z,5.55
2018-07-20T21:40:35.451Z,4.03
2018-07-20T21:43:03.579Z,4.50
2018-07-20T21:45:31.962Z,5.60
2018-07-20T21:48:00.210Z,3.58
2018-07-20T21:50:28.315Z,5.75
2018-07-20T21:52:56.191Z,4.28
2018-07-20T21:55:24.261Z,7.62
2018-07-20T21:57:52.180Z,5.15
2018-07-20T22:00:20.550Z,3.55
2018-07-20T22:02:49.354Z,3.47
2018-07-20T22:05:17.860Z,7.40
2018-07-20T22:07:45.961Z,4.75
2018-07-20T22:10:14.040Z,3.10
2018-07-20T22:12:42.141Z,3.65
2018-07-20T22:15:10.543Z,3.00
2018-07-20T22:17:38.691Z,2.60
2018-07-20T22:20:07.831Z,4.75
2018-07-20T22:22:36.158Z,3.12
2018-07-20T22:25:05.066Z,5.95
2018-07-20T22:27:33.235Z,8.70
2018-07-20T22:30:01.747Z,3.37
2018-07-20T22:32:29.766Z,2.90
2018-07-20T22:34:57.854Z,6.30
2018-07-20T22:37:26.322Z,3.60
2018-07-20T22:39:54.401Z,2.60
2018-07-20T22:42:22.484Z,3.65
2018-07-20T22:44:50.856Z,3.42
2018-07-20T22:47:18.942Z,4.20
2018-07-20T22:49:47.089Z,6.25
2018-07-20T22:52:15.386Z,4.08
2018-07-20T22:54:43.641Z,3.47
2018-07-20T22:57:11.694Z,6.55
2018-07-20T22:59:40.123Z,5.33
2018-07-20T23:02:08.206Z,7.75
2018-07-20T23:04:36.287Z,7.22
2018-07-20T23:07:04.632Z,4.62
2018-07-20T23:09:32.783Z,6.72
2018-07-20T23:12:00.883Z,6.03
2018-07-20T23:14:29.186Z,9.80
2018-07-20T23:16:57.049Z,4.12
2018-07-20T23:19:25.186Z,4.87
2018-07-20T23:21:53.279Z,3.02
2018-07-20T23:24:21.374Z,6.65
2018-07-20T23:26:49.459Z,4.87
2018-07-20T23:29:17.798Z,4.50
2018-07-20T23:31:45.878Z,8.93
2018-07-20T23:34:13.942Z,5.20
2018-07-20T23:36:42.310Z,5.45
2018-07-20T23:39:10.907Z,4.22
2018-07-20T23:41:38.994Z,5.22
2018-07-20T23:44:07.370Z,7.03
2018-07-20T23:46:35.430Z,3.50
2018-07-20T23:49:03.513Z,6.50
2018-07-20T23:51:31.860Z,4.20
2018-07-20T23:54:00.058Z,6.70
2018-07-20T23:56:28.138Z,5.28
2018-07-20T23:58:56.212Z,5.78
